Time;durP1;ratioP1;P1;durP2;ratioP2;P2;SDS_P1;SDS_P2;PMS_P1;PMS_P2;Temp;Humidity;BMP_temperature;BMP_pressure;BME280_temperature;BME280_humidity;BME280_pressure;Samples;Min_cycle;Max_cycle;Signal;HPM_P1;HPM_P2
2023/03/30 00:01:38;;;;;;;5.93;2.75;;;;;;;8.00;50.83;100240.97;7639238;32;37959;-83
2023/03/30 00:05:58;;;;;;;5.03;3.30;;;;;;;8.29;49.25;100239.03;7638878;32;39357;-84
2023/03/30 00:10:16;;;;;;;7.75;3.33;;;;;;;8.46;48.43;100239.06;7638791;32;40291;-82
2023/03/30 00:14:36;;;;;;;5.37;3.10;;;;;;;7.96;49.81;100242.53;7637960;32;36857;-83
2023/03/30 00:18:52;;;;;;;6.90;3.90;;;;;;;7.83;49.68;100239.03;7638488;32;37114;-81
2023/03/30 00:23:09;;;;;;;8.40;4.53;;;;;;;7.88;49.27;100233.72;7638131;32;39369;-84
2023/03/30 00:27:25;;;;;;;6.25;3.53;;;;;;;7.85;48.74;100244.22;7638262;32;40749;-81
2023/03/30 00:31:42;;;;;;;9.20;4.32;;;;;;;7.94;49.14;100231.09;7638165;32;37598;-83
2023/03/30 00:35:58;;;;;;;10.75;4.53;;;;;;;8.02;49.48;100222.53;7638102;32;37263;-83
2023/03/30 00:40:20;;;;;;;6.32;3.92;;;;;;;7.81;49.30;100222.19;7637101;32;39977;-85
2023/03/30 00:45:14;;;;;;;5.87;3.50;;;;;;;7.81;49.40;100205.88;7629652;32;39910;-83
2023/03/30 00:49:33;;;;;;;6.70;4.10;;;;;;;7.71;50.56;100205.69;7633172;32;37876;-84
2023/03/30 00:53:53;;;;;;;11.70;4.50;;;;;;;7.71;50.76;100205.69;7646333;32;35591;-83
2023/03/30 00:58:10;;;;;;;8.93;4.00;;;;;;;7.76;51.36;100207.66;7644910;32;40320;-83
2023/03/30 01:02:29;;;;;;;6.40;3.97;;;;;;;7.74;50.84;100205.19;7633107;32;40003;-83
2023/03/30 01:06:46;;;;;;;8.05;3.95;;;;;;;7.78;51.04;100217.22;7643877;32;39063;-83
2023/03/30 01:11:05;;;;;;;6.50;3.80;;;;;;;7.76;50.68;100189.50;7633020;32;37112;-83
2023/03/30 01:15:22;;;;;;;5.03;3.53;;;;;;;7.52;51.53;100197.75;7631699;32;39458;-83
2023/03/30 01:20:08;;;;;;;6.10;3.90;;;;;;;7.40;52.15;100172.56;7632850;32;39938;-85
2023/03/30 01:24:48;;;;;;;11.55;4.60;;;;;;;7.42;52.60;100165.00;7632814;32;38671;-83
2023/03/30 01:29:29;;;;;;;9.05;4.57;;;;;;;7.28;52.69;100169.06;7632827;32;38119;-83
2023/03/30 01:33:45;;;;;;;7.53;4.70;;;;;;;7.27;51.96;100167.41;7642255;32;39798;-83
2023/03/30 01:38:30;;;;;;;7.90;4.37;;;;;;;7.10;51.82;100170.03;7632658;32;39672;-82
2023/03/30 01:43:08;;;;;;;7.55;4.70;;;;;;;7.17;51.15;100164.47;7625192;32;38673;-83
2023/03/30 01:47:45;;;;;;;10.52;5.37;;;;;;;7.20;51.48;100167.53;7607247;32;37890;-84
2023/03/30 01:52:15;;;;;;;12.25;5.40;;;;;;;7.09;51.56;100165.69;7606162;32;39395;-84
2023/03/30 01:56:50;;;;;;;7.95;5.07;;;;;;;7.00;51.82;100154.38;7606368;32;38980;-83
2023/03/30 02:01:07;;;;;;;10.55;5.80;;;;;;;6.98;51.83;100156.50;7617117;32;37926;-85
2023/03/30 02:05:26;;;;;;;10.77;5.55;;;;;;;6.91;51.45;100155.81;7606394;32;37967;-84
2023/03/30 02:09:43;;;;;;;12.25;6.47;;;;;;;7.12;51.13;100149.75;7617166;32;40360;-83
2023/03/30 02:14:02;;;;;;;13.13;6.75;;;;;;;6.89;51.45;100139.78;7616998;32;39914;-83
2023/03/30 02:18:19;;;;;;;9.10;5.20;;;;;;;6.88;51.15;100145.44;7616886;32;38712;-82
2023/03/30 02:22:35;;;;;;;11.25;6.12;;;;;;;6.90;52.10;100130.59;7606090;32;37817;-84
2023/03/30 02:26:53;;;;;;;8.52;4.75;;;;;;;6.93;52.40;100135.56;7606076;32;39027;-84
2023/03/30 02:31:14;;;;;;;11.00;5.10;;;;;;;6.91;53.49;100142.25;7606023;32;40069;-83
2023/03/30 02:35:33;;;;;;;10.98;5.25;;;;;;;6.38;56.89;100150.31;7616762;32;36974;-84
2023/03/30 02:40:16;;;;;;;9.80;5.07;;;;;;;6.78;55.03;100140.66;7605923;32;37124;-84
2023/03/30 02:45:12;;;;;;;9.98;5.35;;;;;;;6.70;55.48;100141.81;7615948;32;40029;-84
2023/03/30 02:49:38;;;;;;;10.15;4.80;;;;;;;6.50;57.05;100146.78;7605692;32;40115;-82
2023/03/30 02:54:02;;;;;;;8.98;5.72;;;;;;;6.57;56.84;100139.34;7604526;32;38663;-82
2023/03/30 02:58:38;;;;;;;11.27;5.45;;;;;;;6.81;55.57;100132.00;7604461;32;37328;-82
2023/03/30 03:02:57;;;;;;;9.35;5.03;;;;;;;6.79;55.31;100136.03;7604463;32;39419;-84
2023/03/30 03:07:14;;;;;;;12.40;5.43;;;;;;;6.92;54.91;100133.06;7603432;32;40590;-83
2023/03/30 03:11:30;;;;;;;11.15;5.20;;;;;;;6.66;56.08;100139.84;7626994;32;37994;-86
2023/03/30 03:15:48;;;;;;;8.88;5.25;;;;;;;6.71;56.24;100148.06;7631196;32;37127;-83
2023/03/30 03:20:06;;;;;;;10.35;5.25;;;;;;;6.86;55.84;100140.25;7631267;32;39435;-82
2023/03/30 03:24:22;;;;;;;7.75;4.57;;;;;;;6.87;55.90;100141.09;7631205;32;41830;-85
2023/03/30 03:28:39;;;;;;;9.68;5.20;;;;;;;6.75;56.64;100139.22;7631063;32;37902;-84
2023/03/30 03:32:56;;;;;;;16.90;7.85;;;;;;;6.81;57.15;100133.91;7631016;32;37310;-82
2023/03/30 03:37:12;;;;;;;15.02;7.82;;;;;;;6.92;56.37;100133.06;7630716;32;39424;-83
2023/03/30 03:41:28;;;;;;;18.55;9.32;;;;;;;7.01;54.98;100142.47;7609882;32;40827;-84
2023/03/30 03:45:49;;;;;;;15.60;7.78;;;;;;;7.09;54.34;100133.97;7627713;32;37810;-84
2023/03/30 03:50:08;;;;;;;18.80;8.23;;;;;;;7.23;54.07;100133.69;7630605;32;37912;-83
2023/03/30 03:54:25;;;;;;;16.52;9.30;;;;;;;7.27;53.88;100124.00;7631002;32;39346;-85
2023/03/30 03:58:42;;;;;;;16.55;9.13;;;;;;;7.51;52.88;100116.59;7630292;32;40654;-82
2023/03/30 04:02:58;;;;;;;18.20;9.07;;;;;;;7.39;52.88;100118.53;7630219;32;37918;-83
2023/03/30 04:07:15;;;;;;;14.95;8.57;;;;;;;7.30;52.54;100107.25;7623458;32;37156;-83
2023/03/30 04:11:32;;;;;;;15.18;8.07;;;;;;;7.42;51.99;100110.72;7603968;32;39345;-83
2023/03/30 04:15:48;;;;;;;18.95;8.80;;;;;;;7.50;51.47;100107.63;7604543;32;40836;-82
2023/03/30 04:20:09;;;;;;;13.38;7.47;;;;;;;7.45;51.31;100110.25;7607244;32;37775;-83
2023/03/30 04:24:28;;;;;;;14.27;7.90;;;;;;;7.31;51.29;100114.31;7607449;32;37959;-83
2023/03/30 04:28:45;;;;;;;15.77;8.00;;;;;;;7.38;50.98;100112.28;7607753;32;40062;-85
2023/03/30 04:33:02;;;;;;;11.85;6.68;;;;;;;7.57;50.48;100118.34;7607356;32;39614;-83
2023/03/30 04:37:29;;;;;;;12.85;6.78;;;;;;;7.45;50.10;100114.84;7610591;32;37999;-84
2023/03/30 04:41:47;;;;;;;14.93;8.38;;;;;;;7.48;49.79;100104.31;7633285;32;37869;-83
2023/03/30 04:46:05;;;;;;;14.13;7.93;;;;;;;7.68;49.15;100084.87;7633328;32;38517;-83
2023/03/30 04:50:23;;;;;;;12.18;6.47;;;;;;;7.73;49.13;100084.16;7633189;32;39993;-83
2023/03/30 04:54:39;;;;;;;13.38;6.32;;;;;;;7.75;48.86;100086.62;7633068;32;37916;-83
2023/03/30 04:58:57;;;;;;;13.82;6.53;;;;;;;7.65;48.94;100092.69;7632987;32;37329;-83
2023/03/30 05:03:13;;;;;;;14.38;7.05;;;;;;;7.55;49.46;100093.31;7632968;32;40179;-82
2023/03/30 05:07:30;;;;;;;12.43;6.78;;;;;;;7.58;49.44;100086.59;7631486;32;40917;-83
2023/03/30 05:11:46;;;;;;;13.93;7.10;;;;;;;7.53;49.63;100074.56;7632945;32;38468;-81
2023/03/30 05:16:02;;;;;;;15.05;7.18;;;;;;;7.42;50.15;100080.91;7632525;32;37208;-83
2023/03/30 05:20:19;;;;;;;13.27;6.82;;;;;;;7.46;50.08;100064.94;7632941;32;39480;-83
2023/03/30 05:24:36;;;;;;;13.50;6.97;;;;;;;7.70;49.37;100068.34;7632721;32;40505;-82
2023/03/30 05:28:52;;;;;;;11.68;6.82;;;;;;;7.66;49.46;100073.44;7632063;32;38088;-84
2023/03/30 05:33:09;;;;;;;13.10;6.82;;;;;;;7.76;49.05;100066.53;7632691;32;37115;-84
2023/03/30 05:37:25;;;;;;;13.23;6.78;;;;;;;7.75;49.05;100067.63;7631220;32;40301;-84
2023/03/30 05:41:41;;;;;;;11.18;7.00;;;;;;;7.78;48.80;100070.66;7632622;32;40012;-83
2023/03/30 05:45:58;;;;;;;11.98;6.82;;;;;;;7.84;48.58;100053.38;7632333;32;37603;-83
2023/03/30 05:50:14;;;;;;;14.43;6.97;;;;;;;7.92;48.69;100049.44;7632412;32;37568;-83
2023/03/30 05:54:32;;;;;;;16.35;7.93;;;;;;;8.02;48.50;100059.59;7632487;32;38726;-83
2023/03/30 05:58:50;;;;;;;14.57;7.53;;;;;;;8.00;47.98;100057.16;7632367;32;40020;-84
2023/03/30 06:03:07;;;;;;;16.08;7.25;;;;;;;8.22;47.48;100051.78;7632274;32;38701;-83
2023/03/30 06:07:24;;;;;;;12.35;7.18;;;;;;;8.20;47.42;100044.97;7607351;32;37054;-83
2023/03/30 06:11:40;;;;;;;14.45;8.13;;;;;;;8.10;47.25;100051.06;7606228;32;40068;-84
2023/03/30 06:15:57;;;;;;;18.02;8.80;;;;;;;8.39;47.14;100054.44;7605854;32;40818;-83
2023/03/30 06:20:16;;;;;;;16.73;9.63;;;;;;;8.55;47.11;100068.28;7606010;32;38600;-83
2023/03/30 06:24:33;;;;;;;15.18;7.62;;;;;;;8.60;46.99;100069.16;7606031;32;37923;-83
2023/03/30 06:28:50;;;;;;;14.48;7.35;;;;;;;8.63;46.41;100033.31;7605973;32;39973;-82
2023/03/30 06:33:07;;;;;;;16.95;8.07;;;;;;;8.74;45.68;100034.28;7605859;32;40217;-83
2023/03/30 06:37:24;;;;;;;20.17;7.78;;;;;;;8.87;46.19;100048.56;7606543;32;37959;-83
2023/03/30 06:41:40;;;;;;;20.05;8.25;;;;;;;8.75;46.53;100049.50;7604621;32;37352;-83
2023/03/30 06:45:56;;;;;;;14.68;7.97;;;;;;;8.72;46.76;100054.63;7605775;32;39467;-83
2023/03/30 06:50:13;;;;;;;14.80;8.82;;;;;;;8.77;46.76;100054.69;7605687;32;39925;-83
2023/03/30 06:54:29;;;;;;;13.43;8.07;;;;;;;8.82;46.91;100041.16;7605543;32;38009;-83
2023/03/30 06:58:46;;;;;;;16.05;8.75;;;;;;;8.76;47.74;100037.56;7605642;32;37120;-83
2023/03/30 07:03:02;;;;;;;15.32;7.80;;;;;;;8.88;47.25;100039.31;7612307;32;39836;-83
2023/03/30 07:07:19;;;;;;;15.00;8.02;;;;;;;8.88;47.73;100029.25;7642297;32;39912;-70
2023/03/30 07:11:38;;;;;;;15.93;8.45;;;;;;;9.12;53.62;100026.25;7631808;32;37535;-73
2023/03/30 07:15:56;;;;;;;16.12;8.27;;;;;;;9.28;48.57;100028.06;7631392;32;36810;-83
2023/03/30 07:20:14;;;;;;;14.77;8.27;;;;;;;9.42;46.60;100024.91;7631155;32;40149;-82
2023/03/30 07:24:32;;;;;;;17.02;8.63;;;;;;;9.53;45.14;100018.50;7631088;32;39886;-82
2023/03/30 07:28:49;;;;;;;15.48;8.15;;;;;;;9.58;45.49;100013.09;7631156;32;37368;-85
2023/03/30 07:33:05;;;;;;;16.50;8.68;;;;;;;9.54;45.33;100020.94;7624512;32;37078;-82
2023/03/30 07:37:22;;;;;;;14.98;8.45;;;;;;;9.43;45.57;100027.37;7604844;32;40209;-83
2023/03/30 07:41:38;;;;;;;17.02;7.95;;;;;;;9.85;44.30;100036.69;7604473;32;39990;-85
2023/03/30 07:45:57;;;;;;;18.15;8.50;;;;;;;10.00;44.33;100033.28;7604640;32;36816;-84
2023/03/30 07:50:13;;;;;;;16.05;7.97;;;;;;;10.09;44.16;100037.13;7604870;32;37154;-83
2023/03/30 07:54:29;;;;;;;15.05;7.53;;;;;;;9.96;45.11;100035.69;7607694;32;39471;-74
2023/03/30 07:58:46;;;;;;;16.77;8.70;;;;;;;9.98;47.80;100044.41;7607584;32;40522;-83
2023/03/30 08:03:02;;;;;;;13.82;7.93;;;;;;;10.55;42.97;100033.91;7625395;32;38612;-84
2023/03/30 08:07:20;;;;;;;16.45;8.02;;;;;;;10.95;41.91;100033.25;7633702;32;36870;-83
2023/03/30 08:11:36;;;;;;;14.70;7.12;;;;;;;10.89;42.42;100031.56;7627574;32;39207;-82
2023/03/30 08:15:54;;;;;;;13.07;7.65;;;;;;;10.87;42.25;100045.47;7614642;32;39028;-82
2023/03/30 08:20:11;;;;;;;14.25;7.45;;;;;;;11.06;42.49;100028.62;7615943;32;38734;-82
2023/03/30 08:24:28;;;;;;;17.52;8.45;;;;;;;11.03;42.70;100038.16;7617491;32;36410;-81
2023/03/30 08:28:44;;;;;;;13.95;8.27;;;;;;;11.16;42.66;100038.72;7615680;32;40139;-82
2023/03/30 08:33:01;;;;;;;15.50;8.52;;;;;;;11.00;42.41;100041.41;7626259;32;40089;-84
2023/03/30 08:37:18;;;;;;;19.33;8.70;;;;;;;10.77;42.72;100029.06;7607161;32;37689;-82
2023/03/30 08:41:50;;;;;;;17.83;8.63;;;;;;;10.98;42.37;100029.94;7615277;32;37337;-82
2023/03/30 08:46:12;;;;;;;15.18;8.27;;;;;;;10.73;42.58;100024.41;7633182;32;39390;-82
2023/03/30 08:50:33;;;;;;;17.02;8.82;;;;;;;10.74;42.61;100026.06;7631995;32;40042;-82
2023/03/30 08:54:54;;;;;;;18.23;8.20;;;;;;;10.79;42.79;100029.63;7619551;32;38456;-81
2023/03/30 08:59:35;;;;;;;16.37;8.75;;;;;;;11.12;42.30;100016.63;7623066;32;37161;-81
2023/03/30 09:04:39;;;;;;;16.62;8.90;;;;;;;10.63;42.67;100034.19;7615041;32;39316;-83
2023/03/30 09:08:56;;;;;;;16.33;7.87;;;;;;;10.94;42.55;100025.31;7611041;32;39587;-81
2023/03/30 09:13:17;;;;;;;16.45;8.52;;;;;;;11.13;42.54;100006.53;7625421;32;37934;-82
2023/03/30 09:17:40;;;;;;;18.08;8.45;;;;;;;11.20;43.71;99982.53;7634535;32;36885;-80
2023/03/30 09:21:58;;;;;;;14.30;8.63;;;;;;;11.07;44.82;99987.44;7633580;32;39475;-81
2023/03/30 09:26:34;;;;;;;15.00;8.35;;;;;;;11.52;43.23;99976.81;7632162;32;40160;-83
2023/03/30 09:31:04;;;;;;;17.37;8.65;;;;;;;11.62;42.76;99979.56;7611341;32;38039;-81
2023/03/30 09:35:25;;;;;;;15.20;7.68;;;;;;;11.91;41.47;99972.72;7612927;32;37012;-84
2023/03/30 09:39:46;;;;;;;16.73;7.40;;;;;;;12.16;39.97;99989.06;7636529;32;39345;-84
2023/03/30 09:44:08;;;;;;;14.48;8.05;;;;;;;12.66;39.60;99993.78;7611426;32;39023;-84
2023/03/30 09:48:25;;;;;;;13.85;7.87;;;;;;;12.48;39.55;99976.91;7617009;32;37815;-85
2023/03/30 09:52:52;;;;;;;13.48;7.12;;;;;;;12.83;39.05;99977.00;7614936;32;37167;-84
2023/03/30 09:57:27;;;;;;;19.25;7.85;;;;;;;12.68;40.05;99976.00;7603258;32;38953;-84
2023/03/30 10:01:43;;;;;;;14.40;8.13;;;;;;;12.46;39.50;99970.09;7603503;32;40846;-84
2023/03/30 10:06:14;;;;;;;14.45;7.62;;;;;;;12.77;39.35;99960.63;7605350;32;38007;-84
2023/03/30 10:10:38;;;;;;;15.43;7.80;;;;;;;13.12;39.07;99964.25;7615630;32;38215;-83
2023/03/30 10:15:01;;;;;;;17.17;7.60;;;;;;;13.27;38.08;99959.75;7617544;32;39213;-84
2023/03/30 10:19:21;;;;;;;14.65;7.53;;;;;;;13.37;37.42;99948.75;7635850;32;40029;-83
2023/03/30 10:23:40;;;;;;;14.13;7.28;;;;;;;13.25;37.45;99940.06;7630298;32;37933;-82
2023/03/30 10:28:13;;;;;;;16.95;7.28;;;;;;;13.07;38.43;99939.66;7632988;32;37600;-82
2023/03/30 10:32:30;;;;;;;13.27;7.12;;;;;;;13.30;38.10;99926.34;7605161;32;40191;-83
2023/03/30 10:36:52;;;;;;;15.65;7.30;;;;;;;13.77;37.48;99913.88;7605859;32;40033;-85
2023/03/30 10:41:19;;;;;;;12.80;7.22;;;;;;;13.84;37.05;99908.03;7616457;32;37700;-84
2023/03/30 10:45:50;;;;;;;16.55;7.95;;;;;;;14.31;37.27;99903.66;7615449;32;36801;-84
2023/03/30 10:50:45;;;;;;;14.82;7.50;;;;;;;14.78;35.95;99890.12;7613402;32;39876;-84
2023/03/30 10:55:29;;;;;;;15.30;7.70;;;;;;;14.60;35.77;99887.09;7602532;32;41103;-83
2023/03/30 11:00:00;;;;;;;15.93;7.70;;;;;;;14.30;35.63;99882.84;7601846;32;38423;-85
2023/03/30 11:04:42;;;;;;;15.27;7.50;;;;;;;14.20;36.53;99885.72;7616405;32;37992;-84
2023/03/30 11:09:03;;;;;;;16.92;7.75;;;;;;;13.85;36.70;99891.31;7605580;32;40073;-85
2023/03/30 11:13:26;;;;;;;14.57;7.95;;;;;;;13.55;37.03;99889.69;7616352;32;39935;-85
2023/03/30 11:17:50;;;;;;;13.27;7.22;;;;;;;13.76;37.83;99881.28;7553758;33;38092;-85
2023/03/30 11:22:24;;;;;;;16.20;7.47;;;;;;;14.56;36.87;99875.06;7553776;33;37028;-85
2023/03/30 11:27:02;;;;;;;13.48;7.35;;;;;;;14.20;36.27;99861.84;7562624;33;40197;-84
2023/03/30 11:31:30;;;;;;;16.98;7.75;;;;;;;14.58;35.79;99867.38;7562699;33;40051;-84
2023/03/30 11:36:04;;;;;;;16.50;7.82;;;;;;;15.28;35.97;99862.16;7563909;33;37905;-85
2023/03/30 11:40:27;;;;;;;20.17;7.57;;;;;;;15.41;35.31;99850.38;7553244;33;37428;-85
2023/03/30 11:44:43;;;;;;;14.70;7.03;;;;;;;15.52;34.15;99837.28;7553295;33;40065;-85
2023/03/30 11:49:27;;;;;;;13.52;6.75;;;;;;;16.29;33.73;99830.25;7553139;33;39090;-85
2023/03/30 11:54:15;;;;;;;15.85;7.55;;;;;;;16.79;33.35;99832.13;7553051;33;36483;-85
2023/03/30 11:58:55;;;;;;;16.23;8.00;;;;;;;17.03;32.80;99815.31;7552823;33;37934;-85
2023/03/30 12:03:13;;;;;;;19.30;8.45;;;;;;;16.85;32.13;99806.97;7562383;33;39112;-85
2023/03/30 12:08:06;;;;;;;16.05;7.32;;;;;;;16.24;32.99;99802.84;7563517;33;41439;-85
2023/03/30 12:12:38;;;;;;;13.62;7.55;;;;;;;16.15;33.83;99791.78;7552445;33;38676;-85
2023/03/30 12:16:58;;;;;;;14.80;7.72;;;;;;;16.05;34.02;99787.31;7613418;32;37970;-85
2023/03/30 12:21:41;;;;;;;16.87;7.80;;;;;;;15.82;34.45;99788.37;7628391;32;39439;-84
2023/03/30 12:26:09;;;;;;;13.62;7.57;;;;;;;15.88;34.34;99771.44;7629597;32;39988;-85
2023/03/30 12:30:44;;;;;;;16.40;7.83;;;;;;;16.69;33.50;99750.59;7629690;32;38007;-84
2023/03/30 12:35:20;;;;;;;16.17;7.82;;;;;;;16.81;32.57;99741.78;7628534;32;37801;-85
2023/03/30 12:39:47;;;;;;;15.25;7.22;;;;;;;17.16;33.34;99733.72;7633015;32;40229;-84
2023/03/30 12:44:34;;;;;;;14.68;7.87;;;;;;;17.11;33.17;99729.19;7632134;32;40579;-84
2023/03/30 12:49:06;;;;;;;14.68;7.55;;;;;;;17.36;32.35;99724.09;7633342;32;37599;-84
2023/03/30 12:53:47;;;;;;;15.83;8.17;;;;;;;16.84;33.58;99719.97;7633283;32;37851;-84
2023/03/30 12:58:17;;;;;;;15.18;7.85;;;;;;;16.84;33.21;99714.47;7625098;32;39119;-84
2023/03/30 13:02:53;;;;;;;14.93;8.40;;;;;;;16.74;34.06;99722.16;7617795;32;40860;-84
2023/03/30 13:07:22;;;;;;;12.88;7.93;;;;;;;16.15;35.71;99726.56;7606957;32;37598;-83
2023/03/30 13:11:53;;;;;;;14.18;6.05;;;;;;;16.21;34.61;99723.72;7623293;32;37121;-75
2023/03/30 13:16:09;;;;;;;14.48;8.05;;;;;;;16.52;38.96;99721.03;7632671;32;40279;-75
2023/03/30 13:20:41;;;;;;;14.90;8.38;;;;;;;16.42;36.88;99721.28;7630418;32;40109;-82
2023/03/30 13:25:01;;;;;;;15.73;8.05;;;;;;;16.46;35.67;99717.59;7629999;32;37644;-81
2023/03/30 13:29:29;;;;;;;19.37;9.20;;;;;;;16.37;35.89;99705.72;7631373;32;37031;-81
2023/03/30 13:33:54;;;;;;;17.12;8.73;;;;;;;16.28;36.09;99702.91;7626266;32;39074;-80
2023/03/30 13:38:29;;;;;;;14.57;9.45;;;;;;;15.91;37.09;99695.81;7623556;32;39720;-83
2023/03/30 13:43:02;;;;;;;15.63;8.50;;;;;;;16.16;36.72;99688.91;7623599;32;37513;-84
2023/03/30 13:47:27;;;;;;;14.87;8.73;;;;;;;15.77;37.69;99682.91;7643210;32;37114;-87
2023/03/30 13:51:44;;;;;;;19.30;9.15;;;;;;;15.74;37.80;99677.97;7625780;32;39068;-84
2023/03/30 13:56:06;;;;;;;18.80;9.13;;;;;;;15.81;37.67;99660.28;7622571;32;39955;-86
2023/03/30 14:00:42;;;;;;;18.55;9.68;;;;;;;16.11;36.92;99647.78;7621301;32;37840;-82
2023/03/30 14:05:34;;;;;;;22.62;9.68;;;;;;;15.88;37.37;99631.25;7611214;32;36812;-83
2023/03/30 14:10:19;;;;;;;18.90;9.60;;;;;;;15.89;37.94;99621.88;7611830;32;40220;-83
2023/03/30 14:14:40;;;;;;;15.73;9.02;;;;;;;16.11;37.65;99612.84;7617621;32;40943;-84
2023/03/30 14:19:09;;;;;;;19.80;9.85;;;;;;;16.19;37.53;99596.69;7634100;32;38656;-85
2023/03/30 14:23:34;;;;;;;17.17;9.50;;;;;;;15.32;39.32;99605.84;7631174;32;37350;-85
2023/03/30 14:27:50;;;;;;;21.80;10.10;;;;;;;15.66;38.59;99576.22;7631112;32;39414;-85
2023/03/30 14:32:12;;;;;;;17.62;9.18;;;;;;;16.07;37.97;99558.78;7623543;32;40093;-85
2023/03/30 14:36:29;;;;;;;;;;;;;;;15.93;38.12;99562.41;7609929;32;37671;-85
2023/03/30 14:40:46;;;;;;;18.55;8.55;;;;;;;15.87;38.59;99560.13;7606361;32;36846;-85
2023/03/30 14:45:07;;;;;;;19.10;9.82;;;;;;;15.70;38.99;99560.75;7606105;32;40089;-86
2023/03/30 14:49:26;;;;;;;16.70;9.95;;;;;;;15.50;39.55;99556.53;7606135;32;40829;-85
2023/03/30 14:53:42;;;;;;;14.68;9.75;;;;;;;15.98;39.13;99549.66;7605835;32;37946;-86
2023/03/30 14:58:01;;;;;;;16.55;9.73;;;;;;;16.03;39.26;99552.28;7616847;32;36919;-86
2023/03/30 15:02:22;;;;;;;21.45;9.60;;;;;;;15.82;39.89;99554.75;7629365;32;39294;-85
2023/03/30 15:06:42;;;;;;;17.77;9.55;;;;;;;15.37;41.02;99550.78;7630585;32;40766;-86
2023/03/30 15:11:06;;;;;;;18.83;9.88;;;;;;;15.75;40.39;99558.72;7631586;32;37877;-85
2023/03/30 15:15:29;;;;;;;14.25;8.90;;;;;;;15.43;41.03;99556.16;7630234;32;37850;-85
2023/03/30 15:19:50;;;;;;;16.05;9.40;;;;;;;15.42;41.35;99563.59;7604092;32;40444;-84
2023/03/30 15:24:07;;;;;;;17.60;9.68;;;;;;;15.46;40.97;99566.53;7605232;32;38967;-84
2023/03/30 15:28:25;;;;;;;22.08;9.80;;;;;;;14.98;41.87;99560.41;7615701;32;39510;-84
2023/03/30 15:32:42;;;;;;;25.12;10.15;;;;;;;14.99;41.95;99575.78;7603440;32;36919;-84
2023/03/30 15:36:58;;;;;;;16.23;9.38;;;;;;;15.07;42.50;99570.69;7615652;32;39452;-84
2023/03/30 15:41:16;;;;;;;16.30;9.32;;;;;;;14.89;44.00;99597.94;7603801;32;40665;-84
2023/03/30 15:45:35;;;;;;;15.80;9.70;;;;;;;14.83;45.52;99586.25;7604243;32;38744;-85
2023/03/30 15:49:51;;;;;;;18.75;9.80;;;;;;;14.58;47.37;99576.59;7604063;32;38247;-85
2023/03/30 15:54:12;;;;;;;17.85;9.98;;;;;;;14.39;48.26;99562.94;7604172;32;40048;-86
2023/03/30 15:58:28;;;;;;;19.67;10.95;;;;;;;14.55;48.39;99565.38;7602822;32;39872;-85
2023/03/30 16:02:56;;;;;;;21.33;10.80;;;;;;;14.39;50.77;99557.44;7609716;32;37546;-85
2023/03/30 16:07:21;;;;;;;22.37;11.60;;;;;;;14.30;52.73;99561.16;7604089;32;37515;-86
2023/03/30 16:11:37;;;;;;;20.33;11.70;;;;;;;13.98;54.66;99546.41;7604378;32;39412;-87
2023/03/30 16:15:54;;;;;;;18.83;10.65;;;;;;;13.88;54.69;99537.25;7631912;32;39600;-86
2023/03/30 16:20:23;;;;;;;21.55;12.82;;;;;;;13.70;55.62;99516.16;7631857;32;38137;-86
2023/03/30 16:24:40;;;;;;;24.23;13.13;;;;;;;13.52;56.86;99480.31;7633561;32;37269;-86
2023/03/30 16:28:57;;;;;;;20.48;12.27;;;;;;;13.75;56.48;99479.66;7632638;32;40264;-85
2023/03/30 16:33:13;;;;;;;27.70;11.40;;;;;;;13.18;58.48;99498.84;7633362;32;40017;-87
2023/03/30 16:37:29;;;;;;;22.02;11.52;;;;;;;13.27;57.61;99506.13;7632435;32;38099;-86
2023/03/30 16:41:48;;;;;;;21.25;12.50;;;;;;;12.89;58.94;99517.03;7632943;32;36938;-86
2023/03/30 16:46:04;;;;;;;24.70;11.93;;;;;;;12.45;60.62;99525.50;7631694;32;39056;-87
2023/03/30 16:50:39;;;;;;;24.35;11.80;;;;;;;12.70;59.05;99524.41;7632805;32;40949;-86
2023/03/30 16:54:57;;;;;;;22.60;12.63;;;;;;;12.93;59.22;99533.69;7633023;32;38068;-85
2023/03/30 16:59:25;;;;;;;26.20;15.57;;;;;;;12.77;60.37;99539.34;7632448;32;37198;-86
2023/03/30 17:03:41;;;;;;;19.00;11.85;;;;;;;12.78;60.44;99546.47;7632763;32;40018;-83
2023/03/30 17:08:03;;;;;;;21.52;12.37;;;;;;;13.01;58.96;99524.84;7628851;32;39915;-84
2023/03/30 17:12:19;;;;;;;19.70;11.82;;;;;;;12.75;59.68;99536.09;7632938;32;36794;-85
2023/03/30 17:16:38;;;;;;;23.20;12.50;;;;;;;12.86;59.79;99516.81;7632464;32;36938;-82
2023/03/30 17:20:56;;;;;;;19.55;11.77;;;;;;;12.97;59.50;99499.19;7632044;32;39246;-82
2023/03/30 17:25:13;;;;;;;20.67;11.77;;;;;;;12.89;59.49;99494.34;7606129;32;38982;-86
2023/03/30 17:29:30;;;;;;;24.10;12.43;;;;;;;12.74;60.29;99487.97;7605961;32;37650;-85
2023/03/30 17:33:48;;;;;;;23.95;12.27;;;;;;;12.66;60.53;99474.97;7606462;32;36499;-83
2023/03/30 17:38:08;;;;;;;26.05;12.05;;;;;;;12.10;61.98;99481.06;7607093;32;40038;-86
2023/03/30 17:42:24;;;;;;;20.73;12.15;;;;;;;12.29;60.99;99490.16;7632199;32;39637;-82
2023/03/30 17:46:42;;;;;;;20.90;11.50;;;;;;;11.87;62.57;99499.03;7632200;32;38251;-84
2023/03/30 17:50:59;;;;;;;22.33;13.80;;;;;;;11.94;62.06;99505.81;7632571;32;37233;-85
2023/03/30 17:55:17;;;;;;;19.60;12.32;;;;;;;12.47;62.22;99520.56;7631193;32;40187;-86
2023/03/30 17:59:35;;;;;;;24.40;12.37;;;;;;;12.35;60.63;99516.34;7632389;32;40347;-85
2023/03/30 18:03:52;;;;;;;21.17;11.95;;;;;;;12.18;60.87;99519.50;7627461;32;37739;-85
2023/03/30 18:08:16;;;;;;;24.90;11.88;;;;;;;12.46;59.90;99517.03;7606569;32;36262;-85
2023/03/30 18:12:32;;;;;;;21.50;11.40;;;;;;;12.38;60.09;99523.97;7627882;32;39503;-81
2023/03/30 18:16:49;;;;;;;19.35;10.35;;;;;;;12.32;60.37;99560.66;7635489;32;41279;-84
2023/03/30 18:21:08;;;;;;;18.17;11.25;;;;;;;12.54;59.44;99583.94;7632120;32;37675;-85
2023/03/30 18:25:24;;;;;;;19.48;11.15;;;;;;;12.69;59.46;99570.06;7632297;32;36808;-85
2023/03/30 18:29:47;;;;;;;19.65;11.15;;;;;;;12.60;59.70;99580.03;7632255;32;40518;-85
2023/03/30 18:34:03;;;;;;;22.08;11.12;;;;;;;12.52;60.49;99561.53;7631999;32;39654;-85
2023/03/30 18:38:21;;;;;;;21.25;12.60;;;;;;;12.52;60.83;99573.28;7632008;32;37686;-85
2023/03/30 18:42:44;;;;;;;22.33;12.85;;;;;;;12.34;61.79;99569.38;7631863;32;38176;-86
2023/03/30 18:47:00;;;;;;;24.40;12.13;;;;;;;12.20;62.27;99585.62;7632062;32;39124;-85
2023/03/30 18:51:18;;;;;;;20.60;12.63;;;;;;;11.91;63.75;99585.59;7629655;32;39921;-84
2023/03/30 18:55:37;;;;;;;24.50;12.75;;;;;;;12.09;63.28;99575.06;7626933;32;37899;-86
2023/03/30 18:59:53;;;;;;;21.80;11.60;;;;;;;12.12;62.94;99547.97;7618551;32;38292;-85
2023/03/30 19:04:09;;;;;;;19.83;11.82;;;;;;;12.10;62.80;99506.47;7612292;32;40176;-83
2023/03/30 19:08:26;;;;;;;19.27;12.25;;;;;;;12.17;62.72;99456.94;7626838;32;41277;-84
2023/03/30 19:12:45;;;;;;;25.23;13.60;;;;;;;11.60;64.78;99482.03;7626112;32;38024;-85
2023/03/30 19:17:02;;;;;;;24.08;13.82;;;;;;;11.17;66.30;99511.84;7614419;32;37930;-84
2023/03/30 19:21:19;;;;;;;23.90;14.63;;;;;;;11.32;65.73;99485.56;7615946;32;38948;-85
2023/03/30 19:25:36;;;;;;;22.60;13.23;;;;;;;11.63;64.63;99492.41;7613669;32;40032;-86
2023/03/30 19:29:52;;;;;;;20.90;12.25;;;;;;;11.56;64.51;99480.19;7616980;32;38825;-83
2023/03/30 19:34:09;;;;;;;21.37;13.75;;;;;;;11.47;65.25;99477.25;7613640;32;37154;-86
2023/03/30 19:38:25;;;;;;;18.50;12.48;;;;;;;11.60;64.77;99465.66;7616681;32;39600;-84
2023/03/30 19:42:45;;;;;;;22.13;13.30;;;;;;;11.56;64.56;99478.25;7612311;32;39978;-84
2023/03/30 19:47:01;;;;;;;34.25;18.35;;;;;;;11.49;64.94;99483.25;7614819;32;38102;-86
2023/03/30 19:51:18;;;;;;;26.77;16.05;;;;;;;11.75;64.01;99466.66;7618804;32;37357;-85
2023/03/30 19:55:35;;;;;;;33.65;18.92;;;;;;;11.51;64.49;99481.03;7616936;32;39658;-85
2023/03/30 19:59:51;;;;;;;30.10;17.30;;;;;;;11.78;63.22;99476.97;7620391;32;39974;-85
2023/03/30 20:04:07;;;;;;;27.58;16.00;;;;;;;11.27;65.38;99470.84;7616298;32;38620;-84
2023/03/30 20:08:24;;;;;;;26.55;15.45;;;;;;;11.43;64.62;99465.25;7616782;32;37040;-85
2023/03/30 20:12:40;;;;;;;21.60;14.25;;;;;;;11.56;64.08;99474.72;7624537;32;40338;-85
2023/03/30 20:16:59;;;;;;;26.25;14.60;;;;;;;11.41;65.04;99476.47;7607602;32;39249;-85